Time;durP1;ratioP1;P1;durP2;ratioP2;P2;SDS_P1;SDS_P2;PMS_P1;PMS_P2;Temp;Humidity;BMP_temperature;BMP_pressure;BME280_temperature;BME280_humidity;BME280_pressure;Samples;Min_cycle;Max_cycle;Signal;HPM_P1;HPM_P2
2022/11/21 00:00:49;;;;;;;0.35;0.35;;;0.20;1.00;;;;;;5048969;28;20064;-77
2022/11/21 00:03:14;;;;;;;1.38;1.27;;;0.20;1.00;;;;;;5023313;28;20060;-76
2022/11/21 00:05:42;;;;;;;1.48;1.38;;;0.20;1.00;;;;;;5043641;28;20048;-77
2022/11/21 00:08:11;;;;;;;5.15;1.95;;;0.20;1.00;;;;;;5031684;28;20053;-75
2022/11/21 00:10:37;;;;;;;0.75;0.75;;;0.10;1.00;;;;;;5048798;28;20053;-77
2022/11/21 00:13:04;;;;;;;3.30;2.65;;;0.10;1.00;;;;;;5042150;28;20037;-76
2022/11/21 00:15:32;;;;;;;0.00;0.00;;;0.10;1.00;;;;;;5040924;28;20045;-74
2022/11/21 00:17:57;;;;;;;0.93;0.93;;;0.10;1.00;;;;;;5030286;28;20040;-77
2022/11/21 00:20:23;;;;;;;0.20;0.20;;;0.10;1.00;;;;;;5047507;28;20686;-75
2022/11/21 00:22:49;;;;;;;0.20;0.20;;;0.10;1.00;;;;;;5047168;28;20124;-75
2022/11/21 00:25:15;;;;;;;0.50;0.50;;;0.10;1.00;;;;;;5047346;28;20357;-76
2022/11/21 00:27:41;;;;;;;1.90;1.20;;;0.00;1.00;;;;;;5047257;28;20040;-77
2022/11/21 00:30:09;;;;;;;0.38;0.38;;;0.00;1.00;;;;;;5048101;28;20091;-75
2022/11/21 00:32:34;;;;;;;0.20;0.20;;;0.00;1.00;;;;;;5053885;28;20110;-76
2022/11/21 00:35:00;;;;;;;1.17;0.65;;;0.00;1.00;;;;;;5054606;28;20068;-76
2022/11/21 00:37:26;;;;;;;0.10;0.10;;;-0.10;1.00;;;;;;5051987;28;20160;-75
2022/11/21 00:39:57;;;;;;;0.35;0.35;;;-0.10;1.00;;;;;;5048081;28;20123;-76
2022/11/21 00:42:33;;;;;;;0.30;0.30;;;-0.20;1.00;;;;;;5047961;28;20559;-76
2022/11/21 00:45:07;;;;;;;1.58;1.48;;;-0.70;1.00;;;;;;5029243;28;20040;-76
2022/11/21 00:47:32;;;;;;;0.63;0.63;;;-0.50;1.00;;;;;;5029459;28;20052;-75
2022/11/21 00:49:58;;;;;;;0.00;0.00;;;-0.10;1.00;;;;;;5029609;28;20044;-75
2022/11/21 00:52:24;;;;;;;0.22;0.22;;;0.00;1.00;;;;;;5047837;28;20056;-76
2022/11/21 00:54:49;;;;;;;0.55;0.55;;;0.00;1.00;;;;;;5048780;28;20072;-75
2022/11/21 00:57:15;;;;;;;0.30;0.30;;;0.00;1.00;;;;;;5048231;28;20052;-75
2022/11/21 00:59:40;;;;;;;0.15;0.15;;;0.00;1.00;;;;;;5048107;28;20049;-76
2022/11/21 01:02:06;;;;;;;0.65;0.65;;;0.00;1.00;;;;;;5048463;28;20051;-75
2022/11/21 01:04:34;;;;;;;0.10;0.10;;;0.10;1.00;;;;;;5048398;28;20060;-76
2022/11/21 01:07:00;;;;;;;0.10;0.10;;;0.00;1.00;;;;;;5048208;28;20045;-74
2022/11/21 01:09:27;;;;;;;1.58;1.48;;;0.00;1.00;;;;;;5048615;28;20045;-75
2022/11/21 01:11:53;;;;;;;0.20;0.20;;;-0.10;1.00;;;;;;5049082;28;20123;-75
2022/11/21 01:14:19;;;;;;;7.07;1.52;;;-0.20;99.90;;;;;;5047850;28;20528;-75
2022/11/21 01:16:44;;;;;;;0.80;0.57;;;-0.20;99.90;;;;;;5048033;28;20076;-75
2022/11/21 01:19:10;;;;;;;0.32;0.32;;;-0.30;99.90;;;;;;5047955;28;20045;-76
2022/11/21 01:21:35;;;;;;;0.17;0.17;;;-0.50;99.90;;;;;;5047998;28;20607;-76
2022/11/21 01:24:02;;;;;;;0.25;0.25;;;-0.70;99.90;;;;;;5048263;28;20068;-76
2022/11/21 01:26:30;;;;;;;0.55;0.55;;;-0.90;1.00;;;;;;5048842;28;20080;-76
2022/11/21 01:28:57;;;;;;;0.10;0.10;;;-1.10;1.00;;;;;;5048886;28;20650;-75
2022/11/21 01:31:28;;;;;;;0.40;0.40;;;-1.20;1.00;;;;;;5031820;28;20578;-74
2022/11/21 01:33:56;;;;;;;0.15;0.15;;;-1.40;1.00;;;;;;5049018;28;20037;-76
2022/11/21 01:36:27;;;;;;;0.15;0.15;;;-1.60;1.00;;;;;;5048576;28;20053;-76
2022/11/21 01:38:55;;;;;;;0.10;0.10;;;-1.70;1.00;;;;;;5049203;28;20126;-75
2022/11/21 01:41:25;;;;;;;0.10;0.10;;;-1.80;1.00;;;;;;5048338;28;20515;-75
2022/11/21 01:43:51;;;;;;;0.10;0.10;;;-1.90;1.00;;;;;;5049148;28;20071;-75
2022/11/21 01:46:19;;;;;;;0.65;0.65;;;-2.00;1.00;;;;;;5049755;28;20576;-75
2022/11/21 01:49:14;;;;;;;2.70;2.00;;;-2.10;1.00;;;;;;5048998;28;20148;-75
2022/11/21 01:52:02;;;;;;;0.00;0.00;;;-2.20;1.00;;;;;;5048254;28;20132;-75
2022/11/21 01:54:40;;;;;;;0.10;0.10;;;-2.30;1.00;;;;;;5048855;28;20052;-75
2022/11/21 01:57:12;;;;;;;1.02;0.98;;;-2.30;1.00;;;;;;5048200;28;20500;-76
2022/11/21 01:59:44;;;;;;;0.63;0.53;;;-2.40;1.00;;;;;;5048600;28;20057;-75
2022/11/21 02:02:11;;;;;;;0.80;0.80;;;-2.40;1.00;;;;;;5048870;28;20072;-76
2022/11/21 02:04:40;;;;;;;0.40;0.40;;;-2.50;1.00;;;;;;5046765;28;20045;-76
2022/11/21 02:07:07;;;;;;;0.65;0.65;;;-2.60;1.00;;;;;;5048448;28;20045;-76
2022/11/21 02:09:36;;;;;;;0.95;0.63;;;-2.70;1.00;;;;;;5048462;28;20049;-75
2022/11/21 02:12:08;;;;;;;0.30;0.30;;;-2.90;1.00;;;;;;5047727;28;20404;-75
2022/11/21 02:14:36;;;;;;;0.20;0.20;;;-2.90;1.00;;;;;;5047351;28;20068;-76
2022/11/21 02:17:06;;;;;;;0.10;0.10;;;-3.00;1.00;;;;;;5045482;28;20044;-76
2022/11/21 02:19:38;;;;;;;0.00;0.00;;;-3.00;1.00;;;;;;5048717;28;20091;-76
2022/11/21 02:22:14;;;;;;;0.03;0.03;;;-3.00;1.00;;;;;;5048710;28;20049;-76
2022/11/21 02:24:48;;;;;;;0.10;0.10;;;-3.10;1.00;;;;;;5048873;28;20100;-75
2022/11/21 02:27:15;;;;;;;1.02;1.00;;;-3.10;1.00;;;;;;5052143;28;20048;-75
2022/11/21 02:29:42;;;;;;;0.85;0.85;;;-3.00;1.00;;;;;;5051551;28;20048;-76
2022/11/21 02:32:07;;;;;;;0.20;0.20;;;-2.70;1.00;;;;;;5051373;28;20049;-76
2022/11/21 02:34:33;;;;;;;0.10;0.10;;;-2.90;1.00;;;;;;5050896;28;20099;-74
2022/11/21 02:37:00;;;;;;;0.63;0.63;;;-2.90;1.00;;;;;;5050101;28;20041;-76
2022/11/21 02:39:36;;;;;;;1.65;1.55;;;-2.90;1.00;;;;;;5050151;28;20044;-76
2022/11/21 02:42:23;;;;;;;0.70;0.68;;;-2.90;1.00;;;;;;5050755;28;20140;-75
2022/11/21 02:45:00;;;;;;;2.40;2.20;;;-2.90;1.00;;;;;;5049445;28;20062;-76
2022/11/21 02:47:27;;;;;;;0.30;0.30;;;-2.90;1.00;;;;;;5049772;28;20499;-75
2022/11/21 02:50:00;;;;;;;1.47;1.37;;;-3.00;1.00;;;;;;5049465;28;20053;-75
2022/11/21 02:52:26;;;;;;;0.47;0.47;;;-2.90;1.00;;;;;;5049191;28;20095;-75
2022/11/21 02:54:51;;;;;;;0.43;0.43;;;-3.00;1.00;;;;;;5050252;28;20061;-75
2022/11/21 02:57:17;;;;;;;0.00;0.00;;;-2.30;1.00;;;;;;5143069;23;20447;-77
2022/11/21 02:59:43;;;;;;;0.70;0.70;;;-2.90;1.00;;;;;;5048075;28;20053;-76
2022/11/21 03:02:08;;;;;;;1.98;1.00;;;-2.80;1.00;;;;;;5062932;28;20050;-76
2022/11/21 03:04:34;;;;;;;0.10;0.10;;;-2.80;1.00;;;;;;5066574;28;20047;-76
2022/11/21 03:07:00;;;;;;;0.00;0.00;;;-2.80;1.00;;;;;;5085814;28;20093;-77
2022/11/21 03:09:25;;;;;;;0.00;0.00;;;-2.80;1.00;;;;;;5086450;28;20506;-77
2022/11/21 03:11:51;;;;;;;0.13;0.13;;;-2.80;1.00;;;;;;5050779;28;20097;-77
2022/11/21 03:14:16;;;;;;;0.20;0.20;;;-2.80;1.00;;;;;;5066700;28;20060;-77
2022/11/21 03:16:42;;;;;;;0.00;0.00;;;-2.80;1.00;;;;;;5085301;28;20048;-77
2022/11/21 03:19:08;;;;;;;0.20;0.20;;;-2.80;1.00;;;;;;5084973;28;20044;-77
2022/11/21 03:21:33;;;;;;;3.23;2.67;;;-2.80;1.00;;;;;;5085173;28;20122;-77
2022/11/21 03:23:59;;;;;;;0.53;0.53;;;-2.80;1.00;;;;;;5067224;28;20044;-76
2022/11/21 03:26:24;;;;;;;0.45;0.45;;;-2.90;1.00;;;;;;5066578;28;20079;-76
2022/11/21 03:28:50;;;;;;;1.67;1.57;;;-2.90;1.00;;;;;;5066565;28;20039;-77
2022/11/21 03:31:15;;;;;;;0.37;0.37;;;-3.00;1.00;;;;;;5084351;28;20036;-77
2022/11/21 03:33:41;;;;;;;0.83;0.83;;;-3.10;1.00;;;;;;5065794;28;20564;-76
2022/11/21 03:36:07;;;;;;;0.63;0.63;;;-3.30;1.00;;;;;;5084277;28;20051;-76
2022/11/21 03:38:32;;;;;;;0.23;0.23;;;-3.40;1.00;;;;;;5085356;28;20036;-76
2022/11/21 03:41:28;;;;;;;1.33;1.23;;;-3.40;1.00;;;;;;5066834;28;20105;-76
2022/11/21 03:43:51;;;;;;;0.10;0.10;;;-3.30;1.00;;;;;;5084810;28;20052;-76
2022/11/21 03:46:17;;;;;;;0.00;0.00;;;-3.30;1.00;;;;;;5084184;28;20051;-75
2022/11/21 03:48:42;;;;;;;0.10;0.10;;;-3.40;1.00;;;;;;5085113;28;20239;-76
2022/11/21 03:51:08;;;;;;;0.13;0.13;;;-3.50;1.00;;;;;;5084630;28;20112;-76
2022/11/21 03:53:33;;;;;;;0.52;0.52;;;-3.50;1.00;;;;;;5066508;28;20059;-76
2022/11/21 03:55:59;;;;;;;0.43;0.43;;;-3.50;1.00;;;;;;5084496;28;20075;-76
2022/11/21 03:58:25;;;;;;;4.27;2.73;;;-3.50;1.00;;;;;;5084711;28;20090;-76
2022/11/21 04:00:51;;;;;;;0.93;0.93;;;-3.50;1.00;;;;;;5084629;28;20071;-75
2022/11/21 04:03:16;;;;;;;3.83;1.10;;;-3.60;1.00;;;;;;5084698;28;20044;-76
2022/11/21 04:05:43;;;;;;;0.68;0.68;;;-3.60;1.00;;;;;;5083459;28;20043;-75
2022/11/21 04:08:09;;;;;;;0.10;0.10;;;-3.60;1.00;;;;;;5065361;28;20048;-75
2022/11/21 04:10:35;;;;;;;0.20;0.20;;;-3.70;1.00;;;;;;5071232;28;20052;-75
2022/11/21 04:13:00;;;;;;;2.53;1.17;;;-3.60;19.30;;;;;;5063903;28;20048;-75
2022/11/21 04:15:26;;;;;;;2.70;2.10;;;-3.60;98.20;;;;;;5067126;28;20072;-75
2022/11/21 04:17:52;;;;;;;0.30;0.30;;;-3.50;99.90;;;;;;5084073;28;20040;-75
2022/11/21 04:20:17;;;;;;;0.10;0.10;;;-3.60;99.90;;;;;;5065614;28;20482;-75
2022/11/21 04:22:43;;;;;;;2.20;2.00;;;-3.70;99.90;;;;;;5083604;28;20036;-75
2022/11/21 04:25:09;;;;;;;0.00;0.00;;;-3.60;99.90;;;;;;5082881;28;20051;-75
2022/11/21 04:27:34;;;;;;;0.20;0.20;;;-3.60;99.90;;;;;;5083821;28;20119;-75
2022/11/21 04:30:00;;;;;;;0.82;0.82;;;-3.50;99.90;;;;;;5083562;28;20493;-75
2022/11/21 04:32:25;;;;;;;0.10;0.10;;;-3.50;99.90;;;;;;5083707;28;20100;-75
2022/11/21 04:34:51;;;;;;;0.27;0.27;;;-3.50;99.90;;;;;;5083307;28;20410;-75
2022/11/21 04:37:17;;;;;;;0.50;0.50;;;-3.50;99.90;;;;;;5064982;28;20044;-75
2022/11/21 04:39:42;;;;;;;0.60;0.60;;;-3.50;99.90;;;;;;5083638;28;20217;-75
2022/11/21 04:42:08;;;;;;;0.83;0.83;;;-3.50;99.90;;;;;;5083368;28;20044;-75
2022/11/21 04:44:34;;;;;;;0.50;0.50;;;-3.50;99.90;;;;;;5082935;28;20078;-75
2022/11/21 04:46:59;;;;;;;0.57;0.57;;;-3.50;99.90;;;;;;5082869;28;20377;-75
2022/11/21 04:49:25;;;;;;;0.10;0.10;;;-3.50;99.90;;;;;;5082592;28;20047;-75
2022/11/21 04:51:50;;;;;;;0.40;0.40;;;-3.50;99.90;;;;;;5064728;28;20056;-75
2022/11/21 04:54:16;;;;;;;0.00;0.00;;;-3.50;99.90;;;;;;5082730;28;20062;-74
2022/11/21 04:56:42;;;;;;;3.70;0.73;;;-3.50;99.90;;;;;;5082799;28;20446;-75
2022/11/21 04:59:10;;;;;;;0.67;0.27;;;-3.50;99.90;;;;;;5083204;28;20146;-75
2022/11/21 05:01:37;;;;;;;2.33;1.60;;;-3.60;99.90;;;;;;5083570;28;20039;-74
2022/11/21 05:04:03;;;;;;;0.00;0.00;;;-3.60;99.90;;;;;;5083398;28;20123;-75
2022/11/21 05:06:29;;;;;;;0.43;0.43;;;-3.70;99.90;;;;;;5083860;28;20861;-75
2022/11/21 05:08:54;;;;;;;1.13;1.05;;;-3.80;99.90;;;;;;5083881;28;20044;-74
2022/11/21 05:14:05;;;;;;;0.77;0.70;;;-3.80;99.90;;;;;;5083899;28;20048;-75
2022/11/21 05:16:34;;;;;;;0.10;0.10;;;-3.80;99.90;;;;;;5082932;28;20040;-74
2022/11/21 05:18:59;;;;;;;0.40;0.40;;;-3.70;99.90;;;;;;5083859;28;20594;-75
2022/11/21 05:21:25;;;;;;;0.20;0.20;;;-3.70;99.90;;;;;;5083165;28;20107;-75
2022/11/21 05:23:50;;;;;;;0.30;0.30;;;-3.60;99.90;;;;;;5083326;28;20048;-75
2022/11/21 05:26:16;;;;;;;0.00;0.00;;;-3.70;99.90;;;;;;5083199;28;20048;-75
2022/11/21 05:28:42;;;;;;;0.17;0.17;;;-3.60;99.90;;;;;;5083599;28;20522;-75
2022/11/21 05:31:07;;;;;;;1.13;0.73;;;-3.60;99.90;;;;;;5083382;28;20097;-75
2022/11/21 05:33:33;;;;;;;0.70;0.70;;;-3.60;99.90;;;;;;5083484;28;20371;-75
2022/11/21 05:35:58;;;;;;;0.57;0.57;;;-3.60;99.90;;;;;;5082721;28;20050;-75
2022/11/21 05:38:24;;;;;;;0.10;0.10;;;-3.50;99.90;;;;;;5082631;28;20039;-75
2022/11/21 05:40:53;;;;;;;0.73;0.73;;;-3.50;99.90;;;;;;5063684;28;20048;-76
2022/11/21 05:46:02;;;;;;;0.10;0.10;;;-3.20;99.90;;;;;;5082173;28;20493;-76
2022/11/21 05:48:28;;;;;;;0.22;0.22;;;-1.80;99.90;;;;;;5080624;28;20051;-75
2022/11/21 05:50:54;;;;;;;0.55;0.52;;;-2.80;99.90;;;;;;5060776;28;20086;-75
2022/11/21 05:53:19;;;;;;;0.85;0.85;;;-2.80;99.90;;;;;;5078183;28;20050;-76
2022/11/21 05:55:45;;;;;;;0.43;0.43;;;-2.80;99.90;;;;;;5078389;28;20052;-75
2022/11/21 05:58:11;;;;;;;3.97;2.92;;;-2.90;99.90;;;;;;5078507;28;20044;-75
2022/11/21 06:00:37;;;;;;;1.63;1.53;;;-2.90;99.90;;;;;;5081713;28;20058;-75
2022/11/21 06:05:49;;;;;;;0.38;0.38;;;-2.70;99.90;;;;;;5063738;28;20052;-75
2022/11/21 06:08:15;;;;;;;0.33;0.33;;;-2.80;99.90;;;;;;5082097;28;20044;-76
2022/11/21 06:10:40;;;;;;;0.10;0.10;;;-3.00;99.90;;;;;;5082323;28;20528;-75
2022/11/21 06:13:20;;;;;;;4.17;3.53;;;-3.20;99.90;;;;;;5082734;28;20042;-75
2022/11/21 06:16:07;;;;;;;0.00;0.00;;;-3.30;99.90;;;;;;5082493;28;20059;-75
2022/11/21 06:18:35;;;;;;;0.80;0.80;;;-3.50;99.90;;;;;;5081565;28;20056;-75
2022/11/21 06:21:04;;;;;;;5.77;3.10;;;-3.50;99.90;;;;;;5084142;28;20040;-75
2022/11/21 06:23:30;;;;;;;0.10;0.10;;;-3.60;99.90;;;;;;5084853;28;20691;-75
2022/11/21 06:25:57;;;;;;;1.17;1.07;;;-3.70;99.90;;;;;;5084546;28;20044;-75
2022/11/21 06:28:24;;;;;;;1.60;0.73;;;-3.80;99.90;;;;;;5084455;28;20048;-75
2022/11/21 06:30:50;;;;;;;0.93;0.93;;;-3.90;99.90;;;;;;5084735;28;20639;-75
2022/11/21 06:33:17;;;;;;;0.10;0.10;;;-3.90;99.90;;;;;;5084660;28;20235;-75
2022/11/21 06:35:42;;;;;;;0.10;0.10;;;-4.00;99.90;;;;;;5084653;28;20131;-75
2022/11/21 06:38:08;;;;;;;1.52;1.42;;;-3.80;99.90;;;;;;5083225;28;20122;-75
2022/11/21 06:40:34;;;;;;;0.30;0.30;;;-3.60;99.90;;;;;;5082719;28;20040;-75
2022/11/21 06:43:00;;;;;;;0.10;0.10;;;-3.30;99.90;;;;;;5082766;28;20032;-75
2022/11/21 06:45:25;;;;;;;0.10;0.10;;;-3.20;99.90;;;;;;5082431;28;20039;-75
2022/11/21 06:47:51;;;;;;;0.28;0.28;;;-3.10;99.90;;;;;;5082449;28;20075;-75
2022/11/21 06:50:17;;;;;;;0.10;0.10;;;-3.10;99.90;;;;;;5082520;28;20048;-75
2022/11/21 06:52:42;;;;;;;0.13;0.13;;;-3.40;99.90;;;;;;5082831;28;20406;-75
2022/11/21 06:55:09;;;;;;;0.50;0.50;;;-3.50;99.90;;;;;;5083997;28;20043;-75
2022/11/21 06:57:35;;;;;;;0.60;0.60;;;-3.30;99.90;;;;;;5065909;28;20054;-75
2022/11/21 07:00:08;;;;;;;0.25;0.25;;;-3.50;99.90;;;;;;5083792;28;20060;-75
2022/11/21 07:02:34;;;;;;;1.23;1.05;;;-3.50;99.90;;;;;;5084180;28;20050;-75
2022/11/21 07:04:59;;;;;;;0.10;0.10;;;-3.70;99.90;;;;;;5083928;28;20407;-75
2022/11/21 07:07:25;;;;;;;0.63;0.63;;;-3.80;99.90;;;;;;5082392;28;20041;-75
2022/11/21 07:09:50;;;;;;;2.17;1.97;;;-3.80;99.90;;;;;;5084171;28;20046;-75
2022/11/21 07:15:02;;;;;;;0.90;0.90;;;-3.50;99.90;;;;;;5024839;28;20056;-75
2022/11/21 07:17:27;;;;;;;0.00;0.00;;;-3.50;99.90;;;;;;5083679;28;20431;-75
2022/11/21 07:19:53;;;;;;;5.43;3.27;;;-3.60;99.90;;;;;;5065610;28;20040;-75
2022/11/21 07:22:19;;;;;;;0.60;0.60;;;-3.80;99.90;;;;;;5083572;28;20123;-75
2022/11/21 07:24:44;;;;;;;0.00;0.00;;;-3.80;99.90;;;;;;5083116;28;20051;-75
2022/11/21 07:27:10;;;;;;;0.40;0.40;;;-3.90;99.90;;;;;;5083271;28;20524;-75
2022/11/21 07:29:35;;;;;;;0.10;0.10;;;-3.80;99.90;;;;;;5083663;28;20249;-75
2022/11/21 07:32:04;;;;;;;0.50;0.50;;;-3.70;99.90;;;;;;5083415;28;20132;-75
2022/11/21 07:34:30;;;;;;;1.83;0.88;;;-3.60;99.90;;;;;;5083552;28;20079;-75
2022/11/21 07:36:55;;;;;;;1.80;1.70;;;-3.50;99.90;;;;;;5065511;28;20529;-75
2022/11/21 07:39:21;;;;;;;1.40;1.13;;;-3.20;99.90;;;;;;5083236;28;20036;-75
2022/11/21 07:41:46;;;;;;;1.33;1.23;;;-3.20;99.90;;;;;;5083078;28;20040;-75
2022/11/21 07:44:12;;;;;;;1.55;1.45;;;-3.30;99.90;;;;;;5077560;28;20131;-75
2022/11/21 07:46:37;;;;;;;2.13;2.03;;;-3.20;99.90;;;;;;5082855;28;20044;-75
2022/11/21 07:49:03;;;;;;;0.20;0.20;;;-3.20;99.90;;;;;;5052505;28;20456;-75
2022/11/21 07:51:29;;;;;;;0.30;0.30;;;-3.20;99.90;;;;;;5067788;28;20372;-75
2022/11/21 07:53:54;;;;;;;1.57;1.47;;;-3.10;99.90;;;;;;5072721;28;20074;-75
2022/11/21 07:56:20;;;;;;;0.10;0.10;;;-3.00;99.90;;;;;;5070569;28;20138;-75
2022/11/21 07:58:45;;;;;;;0.17;0.17;;;-2.80;99.90;;;;;;5072901;28;20047;-75
2022/11/21 08:01:11;;;;;;;0.45;0.45;;;-2.90;99.90;;;;;;5072042;28;20086;-75
2022/11/21 08:03:37;;;;;;;7.05;2.92;;;-2.90;99.90;;;;;;5071561;28;20447;-75
2022/11/21 08:06:03;;;;;;;1.67;1.57;;;-2.80;99.90;;;;;;5072906;28;20564;-75
2022/11/21 08:08:29;;;;;;;0.30;0.30;;;-2.60;99.90;;;;;;5049851;28;20512;-75
2022/11/21 08:10:55;;;;;;;1.35;1.17;;;-2.40;99.90;;;;;;5062321;28;20092;-75
2022/11/21 08:13:20;;;;;;;0.60;0.60;;;-2.30;99.90;;;;;;5062513;28;20503;-75
2022/11/21 08:15:46;;;;;;;0.22;0.22;;;-2.20;99.90;;;;;;5062274;28;20052;-75
2022/11/21 08:18:14;;;;;;;0.40;0.40;;;-2.20;99.90;;;;;;5044072;28;20055;-75
2022/11/21 08:20:41;;;;;;;0.20;0.20;;;-2.20;99.90;;;;;;5044417;28;20594;-75
2022/11/21 08:23:07;;;;;;;2.17;0.63;;;-2.10;99.90;;;;;;5062192;28;20052;-75
2022/11/21 08:25:33;;;;;;;0.70;0.70;;;-2.10;99.90;;;;;;5061840;28;20047;-75
2022/11/21 08:28:01;;;;;;;4.07;2.08;;;-2.00;99.90;;;;;;5044453;28;20044;-75
2022/11/21 08:30:27;;;;;;;0.20;0.20;;;-1.90;99.90;;;;;;5062126;28;20422;-75
2022/11/21 08:32:52;;;;;;;1.00;1.00;;;-1.90;99.90;;;;;;5061919;28;20048;-75
2022/11/21 08:35:18;;;;;;;0.13;0.13;;;-1.80;99.90;;;;;;5061961;28;20126;-74
2022/11/21 08:37:43;;;;;;;1.17;1.10;;;-1.80;99.90;;;;;;5043839;28;20044;-75
2022/11/21 08:40:10;;;;;;;0.60;0.60;;;-1.80;99.90;;;;;;5044359;28;20055;-75
2022/11/21 08:42:36;;;;;;;2.10;1.90;;;-1.80;99.90;;;;;;5061765;28;20514;-75
2022/11/21 08:45:04;;;;;;;0.23;0.23;;;-1.70;99.90;;;;;;5061618;28;20507;-75
2022/11/21 08:47:32;;;;;;;2.13;1.95;;;-1.50;99.90;;;;;;5061574;28;20040;-75
2022/11/21 08:49:57;;;;;;;0.87;0.87;;;-1.30;99.90;;;;;;5043184;28;20052;-75
2022/11/21 08:52:23;;;;;;;1.90;1.70;;;-1.10;99.90;;;;;;5043312;28;20467;-75
2022/11/21 08:54:48;;;;;;;1.17;1.10;;;-0.80;99.90;;;;;;5043442;28;20052;-75
2022/11/21 08:57:14;;;;;;;1.50;1.40;;;-0.60;99.90;;;;;;5040262;28;20053;-75
2022/11/21 08:59:40;;;;;;;1.88;1.77;;;-0.40;99.90;;;;;;5040462;28;20049;-75
2022/11/21 09:02:06;;;;;;;0.90;0.90;;;-0.20;99.90;;;;;;5042139;28;20052;-75
2022/11/21 09:04:31;;;;;;;1.55;1.45;;;-0.10;99.90;;;;;;5038963;28;20048;-75
2022/11/21 09:06:57;;;;;;;0.60;0.60;;;-0.10;99.90;;;;;;5039156;28;20049;-75
2022/11/21 09:09:23;;;;;;;2.83;1.17;;;0.00;99.90;;;;;;5039166;28;20056;-75
2022/11/21 09:11:48;;;;;;;1.42;1.33;;;0.20;99.90;;;;;;5041613;28;20106;-76
2022/11/21 09:19:42;;;;;;;0.85;0.85;;;0.20;99.90;;;;;;5076354;28;20142;-76
2022/11/21 09:22:08;;;;;;;0.25;0.25;;;0.20;99.90;;;;;;5077451;28;20127;-76
2022/11/21 09:24:34;;;;;;;1.70;1.38;;;0.20;99.90;;;;;;5057816;28;20097;-76
2022/11/21 09:26:59;;;;;;;0.85;0.65;;;0.30;99.90;;;;;;5039335;28;20060;-76
2022/11/21 09:29:25;;;;;;;2.13;1.23;;;0.20;99.90;;;;;;5057420;28;20124;-76
2022/11/21 09:31:50;;;;;;;1.75;1.65;;;0.30;99.90;;;;;;5039696;28;20071;-76
2022/11/21 09:34:17;;;;;;;0.30;0.30;;;0.40;99.90;;;;;;5041351;28;20052;-77
2022/11/21 09:36:42;;;;;;;3.67;2.15;;;0.40;99.90;;;;;;5041644;28;20052;-77
2022/11/21 09:39:08;;;;;;;1.50;1.40;;;0.40;99.90;;;;;;5024238;28;20052;-76
2022/11/21 09:42:15;;;;;;;2.17;1.50;;;0.40;99.90;;;;;;5042240;28;20049;-77
2022/11/21 09:45:02;;;;;;;2.05;1.48;;;0.50;99.90;;;;;;5021573;28;20057;-77
2022/11/21 09:47:34;;;;;;;0.70;0.68;;;0.60;99.90;;;;;;5042568;28;20472;-77
2022/11/21 09:50:01;;;;;;;1.73;1.58;;;0.70;99.90;;;;;;5025587;28;20048;-77
2022/11/21 09:52:36;;;;;;;1.00;0.95;;;0.80;99.90;;;;;;5024767;28;20435;-77
2022/11/21 09:55:17;;;;;;;4.75;2.20;;;0.90;99.90;;;;;;5024624;28;20867;-77
2022/11/21 09:57:46;;;;;;;2.80;2.58;;;0.90;99.90;;;;;;5043266;28;20534;-76
2022/11/21 10:00:19;;;;;;;2.63;1.25;;;1.00;99.90;;;;;;5045103;28;20052;-77
2022/11/21 10:02:45;;;;;;;2.13;1.95;;;0.90;99.90;;;;;;5050171;28;20044;-77
2022/11/21 10:05:14;;;;;;;1.42;1.35;;;1.00;99.90;;;;;;5082658;28;20055;-76
2022/11/21 10:07:41;;;;;;;0.57;0.57;;;1.00;99.90;;;;;;5082839;28;20085;-77
2022/11/21 10:10:25;;;;;;;2.47;2.28;;;1.10;99.90;;;;;;5064264;28;20075;-77
2022/11/21 10:13:19;;;;;;;0.40;0.40;;;1.00;99.90;;;;;;5077109;28;20495;-77
2022/11/21 10:15:50;;;;;;;0.80;0.80;;;1.10;99.90;;;;;;5061756;28;20048;-76
2022/11/21 10:18:38;;;;;;;0.45;0.45;;;1.00;99.90;;;;;;5042631;28;20048;-76
2022/11/21 10:21:26;;;;;;;5.10;2.10;;;1.00;99.90;;;;;;5043956;28;20052;-77
2022/11/21 10:24:01;;;;;;;1.33;1.25;;;1.00;99.90;;;;;;5045221;28;20048;-77
2022/11/21 10:26:36;;;;;;;0.22;0.22;;;1.20;99.90;;;;;;5045514;28;20139;-76
2022/11/21 10:29:17;;;;;;;2.78;2.53;;;1.20;99.90;;;;;;5063711;28;20049;-77
2022/11/21 10:31:43;;;;;;;4.88;2.75;;;1.30;99.90;;;;;;5045837;28;20063;-77
2022/11/21 10:34:19;;;;;;;1.45;1.35;;;1.40;99.90;;;;;;5045388;28;20095;-77
2022/11/21 10:36:51;;;;;;;1.90;1.77;;;1.40;99.90;;;;;;5063198;28;20183;-77
2022/11/21 10:39:24;;;;;;;0.38;0.38;;;1.50;99.90;;;;;;5044880;28;20448;-77
2022/11/21 10:42:16;;;;;;;2.65;1.80;;;1.40;99.90;;;;;;5063485;28;20407;-76
2022/11/21 10:47:36;;;;;;;0.80;0.77;;;1.50;99.90;;;;;;5061912;28;20048;-76
2022/11/21 10:50:08;;;;;;;0.95;0.68;;;1.60;99.90;;;;;;5045586;28;20048;-77
2022/11/21 10:52:43;;;;;;;1.52;1.42;;;1.70;99.90;;;;;;5062027;28;20551;-76
2022/11/21 10:55:12;;;;;;;0.45;0.45;;;1.80;99.90;;;;;;5047500;28;20047;-76
2022/11/21 10:57:43;;;;;;;0.50;0.50;;;1.80;99.90;;;;;;5054244;28;20058;-77
2022/11/21 11:00:12;;;;;;;0.20;0.20;;;1.90;99.90;;;;;;5064814;28;20507;-77
2022/11/21 11:02:59;;;;;;;0.38;0.38;;;1.90;99.90;;;;;;5063085;28;20048;-77
2022/11/21 11:05:28;;;;;;;;;;;2.00;12.40;;;;;;5065997;28;20060;-76
2022/11/21 11:08:06;;;;;;;1.00;0.90;;;2.00;1.00;;;;;;5065212;28;20418;-77
2022/11/21 11:10:35;;;;;;;1.15;1.05;;;2.10;99.90;;;;;;5064869;28;21197;-76
2022/11/21 11:16:03;;;;;;;0.17;0.17;;;2.00;1.00;;;;;;5065770;28;20528;-77
2022/11/21 11:18:30;;;;;;;2.67;2.50;;;2.20;99.90;;;;;;5064877;28;20084;-76
2022/11/21 11:21:14;;;;;;;1.05;1.02;;;2.10;99.90;;;;;;5065058;28;20048;-76
2022/11/21 11:23:40;;;;;;;1.38;1.27;;;2.10;99.90;;;;;;5065372;28;20044;-76
2022/11/21 11:26:29;;;;;;;0.22;0.22;;;2.10;1.00;;;;;;5065449;28;20115;-77
2022/11/21 11:29:13;;;;;;;0.77;0.77;;;2.00;63.20;;;;;;5063891;28;20082;-76
2022/11/21 11:31:48;;;;;;;0.17;0.17;;;1.90;99.90;;;;;;5065492;28;20068;-76
2022/11/21 11:34:14;;;;;;;1.55;1.45;;;1.80;99.90;;;;;;5065237;28;20060;-76
2022/11/21 11:37:11;;;;;;;0.47;0.47;;;1.70;99.90;;;;;;5064673;28;20085;-77
2022/11/21 11:39:39;;;;;;;2.13;2.00;;;1.60;99.90;;;;;;5052593;28;20577;-77
2022/11/21 11:48:18;;;;;;;1.03;0.73;;;1.70;99.90;;;;;;5064343;28;20056;-77
2022/11/21 11:50:51;;;;;;;2.03;1.30;;;1.70;99.90;;;;;;5061177;28;20049;-77
2022/11/21 11:53:20;;;;;;;0.60;0.60;;;1.80;99.90;;;;;;5062215;28;20093;-77
2022/11/21 11:56:07;;;;;;;0.95;0.93;;;1.90;99.90;;;;;;5063768;28;20059;-76
2022/11/21 11:58:43;;;;;;;0.77;0.77;;;2.00;99.90;;;;;;5061030;28;20059;-76
2022/11/21 12:01:26;;;;;;;0.10;0.10;;;2.10;99.90;;;;;;5063961;28;20396;-76
2022/11/21 12:04:15;;;;;;;0.88;0.80;;;2.20;93.10;;;;;;5062443;28;20118;-76
2022/11/21 12:06:56;;;;;;;1.08;1.00;;;2.40;99.90;;;;;;5064313;28;20696;-77
2022/11/21 12:09:33;;;;;;;1.17;1.08;;;2.50;99.90;;;;;;5062681;28;20152;-77
2022/11/21 12:12:14;;;;;;;1.42;0.90;;;2.60;1.00;;;;;;5063508;28;20044;-77
2022/11/21 12:18:13;;;;;;;4.30;2.22;;;2.90;99.90;;;;;;5063782;28;20344;-77
2022/11/21 12:20:45;;;;;;;2.22;1.48;;;3.00;99.90;;;;;;5063410;28;20084;-77
2022/11/21 12:23:11;;;;;;;0.80;0.80;;;3.10;48.90;;;;;;5062822;28;20076;-77
2022/11/21 12:25:45;;;;;;;2.28;2.08;;;3.10;1.00;;;;;;5058866;28;20080;-77
2022/11/21 12:28:25;;;;;;;2.88;2.63;;;3.20;99.90;;;;;;5040976;28;20072;-77
2022/11/21 12:31:03;;;;;;;0.90;0.85;;;3.30;99.90;;;;;;5042577;28;20045;-77
2022/11/21 12:33:33;;;;;;;8.75;2.25;;;3.30;99.90;;;;;;5040807;28;20048;-77
2022/11/21 12:36:07;;;;;;;0.55;0.55;;;3.30;99.90;;;;;;5042253;28;20045;-77
2022/11/21 12:39:09;;;;;;;1.48;1.35;;;3.40;1.00;;;;;;5024411;28;20056;-77
2022/11/21 12:44:37;;;;;;;4.28;1.90;;;3.40;1.00;;;;;;5043047;28;20077;-77
2022/11/21 12:56:56;;;;;;;0.90;0.73;;;3.40;99.90;;;;;;5060465;28;20048;-77
2022/11/21 12:59:24;;;;;;;0.35;0.35;;;3.30;99.90;;;;;;5061355;28;20044;-76
2022/11/21 13:02:08;;;;;;;0.85;0.85;;;3.30;99.90;;;;;;5060819;28;20049;-76
2022/11/21 13:04:37;;;;;;;1.27;1.17;;;3.30;99.90;;;;;;5042348;28;20049;-77
2022/11/21 13:07:04;;;;;;;2.17;1.75;;;3.40;1.00;;;;;;5060899;28;20037;-77
2022/11/21 13:09:36;;;;;;;2.40;1.38;;;3.30;99.90;;;;;;5060225;28;20032;-77
2022/11/21 13:12:04;;;;;;;0.95;0.95;;;3.40;99.90;;;;;;5059959;28;20459;-77
2022/11/21 13:14:36;;;;;;;1.50;1.40;;;3.40;1.00;;;;;;5059183;28;20051;-76
2022/11/21 13:17:05;;;;;;;3.05;1.35;;;3.40;99.90;;;;;;5024587;28;20132;-76
2022/11/21 13:19:50;;;;;;;1.88;1.55;;;3.40;99.90;;;;;;5059633;28;20129;-75
2022/11/21 13:22:34;;;;;;;1.42;1.30;;;3.40;1.00;;;;;;5059877;28;20434;-76
2022/11/21 13:25:01;;;;;;;1.83;1.48;;;3.50;1.00;;;;;;5059521;28;20598;-76
2022/11/21 13:27:30;;;;;;;0.57;0.57;;;3.60;1.00;;;;;;5059503;28;20119;-76
2022/11/21 13:30:09;;;;;;;1.88;1.48;;;3.60;99.90;;;;;;5059388;28;20094;-76
2022/11/21 13:32:56;;;;;;;1.95;1.85;;;3.70;99.90;;;;;;5040653;28;20448;-76
2022/11/21 13:35:21;;;;;;;7.03;1.55;;;3.60;99.90;;;;;;5059490;28;20056;-76
2022/11/21 13:38:09;;;;;;;0.70;0.70;;;3.60;1.00;;;;;;5059596;28;20114;-77
2022/11/21 13:42:56;;;;;;;0.28;0.28;;;3.70;42.30;;;;;;5059373;28;20114;-76
2022/11/21 13:43:26;;;;;;;1.05;1.02;;;3.70;99.90;;;;;;5059176;28;20048;-76
2022/11/21 13:45:56;;;;;;;1.02;0.98;;;3.70;99.90;;;;;;5059230;28;20456;-76
2022/11/21 13:48:30;;;;;;;2.78;1.80;;;3.70;99.90;;;;;;5059316;28;20121;-76
2022/11/21 13:51:13;;;;;;;3.88;1.67;;;3.70;99.90;;;;;;5058799;28;20499;-76